createdAt,value
2019-01-21T00:00:34.227Z,86.11
2019-01-21T00:03:03.020Z,86.01
2019-01-21T00:05:31.657Z,86.00
2019-01-21T00:08:00.154Z,85.64
2019-01-21T00:10:28.624Z,85.66
2019-01-21T00:12:57.123Z,85.68
2019-01-21T00:15:25.762Z,85.90
2019-01-21T00:17:54.266Z,85.90
2019-01-21T00:20:22.744Z,85.57
2019-01-21T00:22:51.237Z,85.43
2019-01-21T00:25:19.710Z,86.01
2019-01-21T00:27:48.278Z,86.64
2019-01-21T00:30:16.821Z,86.24
2019-01-21T00:32:45.315Z,85.92
2019-01-21T00:35:13.796Z,85.78
2019-01-21T00:37:42.280Z,85.89
2019-01-21T00:40:13.570Z,85.84
2019-01-21T00:42:42.065Z,85.46
2019-01-21T00:45:10.806Z,85.58
2019-01-21T00:47:39.276Z,85.30
2019-01-21T00:50:10.377Z,85.45
2019-01-21T00:52:38.921Z,85.24
2019-01-21T00:55:09.554Z,85.71
2019-01-21T00:57:38.013Z,85.85
2019-01-21T01:00:18.656Z,85.76
2019-01-21T01:02:47.318Z,85.83
2019-01-21T01:05:18.209Z,85.77
2019-01-21T01:07:47.007Z,85.39
2019-01-21T01:10:15.676Z,85.68
2019-01-21T01:12:44.153Z,85.68
2019-01-21T01:15:14.375Z,85.66
2019-01-21T01:17:43.272Z,86.05
2019-01-21T01:20:17.049Z,85.76
2019-01-21T01:22:45.796Z,85.75
2019-01-21T01:25:14.368Z,85.84
2019-01-21T01:27:43.084Z,85.70
2019-01-21T01:30:14.510Z,86.12
2019-01-21T01:32:44.629Z,86.14
2019-01-21T01:35:15.365Z,86.20
2019-01-21T01:37:44.382Z,86.29
2019-01-21T01:40:15.385Z,86.51
2019-01-21T01:42:43.933Z,86.43
2019-01-21T01:45:15.471Z,86.58
2019-01-21T01:47:44.930Z,86.53
2019-01-21T01:50:13.661Z,86.68
2019-01-21T01:52:42.193Z,86.94
2019-01-21T01:55:11.229Z,87.30
2019-01-21T01:57:39.769Z,86.85
2019-01-21T02:00:11.561Z,86.71
2019-01-21T02:02:40.032Z,86.92
2019-01-21T02:05:08.867Z,87.60
2019-01-21T02:07:37.337Z,87.48
2019-01-21T02:10:08.759Z,87.19
2019-01-21T02:12:37.239Z,87.36
2019-01-21T02:15:12.197Z,87.41
2019-01-21T02:17:40.730Z,87.62
2019-01-21T02:20:14.973Z,87.35
2019-01-21T02:22:45.826Z,87.11
2019-01-21T02:25:14.870Z,86.34
2019-01-21T02:27:55.206Z,86.61
2019-01-21T02:30:32.397Z,87.09
2019-01-21T02:33:21.791Z,86.97
2019-01-21T02:35:53.343Z,86.65
2019-01-21T02:38:36.824Z,86.78
2019-01-21T02:41:08.733Z,86.46
2019-01-21T02:43:58.764Z,86.70
2019-01-21T02:46:39.296Z,86.52
2019-01-21T02:49:27.564Z,87.26
2019-01-21T02:52:04.657Z,86.98
2019-01-21T02:55:07.399Z,87.28
2019-01-21T02:57:53.521Z,87.18
2019-01-21T03:00:31.125Z,87.49
2019-01-21T03:03:14.623Z,86.82
2019-01-21T03:06:06.731Z,87.05
2019-01-21T03:08:44.253Z,87.23
2019-01-21T03:11:18.662Z,86.91
2019-01-21T03:13:50.201Z,87.04
2019-01-21T03:16:30.829Z,86.85
2019-01-21T03:19:11.358Z,86.91
2019-01-21T03:22:08.546Z,86.19
2019-01-21T03:24:49.140Z,86.82
2019-01-21T03:27:38.812Z,86.99
2019-01-21T03:30:26.798Z,86.97
2019-01-21T03:33:21.018Z,87.39
2019-01-21T03:36:04.384Z,87.33
2019-01-21T03:38:39.122Z,87.61
2019-01-21T03:41:16.501Z,87.46
2019-01-21T03:43:48.019Z,87.38
2019-01-21T03:46:34.748Z,87.33
2019-01-21T03:49:09.526Z,87.56
2019-01-21T03:51:53.300Z,88.24
2019-01-21T03:54:23.524Z,88.33
2019-01-21T03:56:55.067Z,87.75
2019-01-21T03:59:32.604Z,87.83
2019-01-21T04:02:06.952Z,87.86
2019-01-21T04:04:53.717Z,87.40
2019-01-21T04:07:28.112Z,87.71
2019-01-21T04:10:34.607Z,88.20
2019-01-21T04:13:09.084Z,87.64
2019-01-21T04:15:55.485Z,87.83
2019-01-21T04:18:35.879Z,88.21
2019-01-21T04:21:16.410Z,88.16
2019-01-21T04:23:50.363Z,87.91
2019-01-21T04:26:24.379Z,88.05
2019-01-21T04:29:04.413Z,88.31
2019-01-21T04:31:47.777Z,87.93
2019-01-21T04:34:28.034Z,87.98
2019-01-21T04:37:16.138Z,87.95
2019-01-21T04:39:55.933Z,88.07
2019-01-21T04:42:39.503Z,87.56
2019-01-21T04:45:16.787Z,88.14
2019-01-21T04:47:54.375Z,87.88
2019-01-21T04:50:25.927Z,87.58
2019-01-21T04:53:00.009Z,87.56
2019-01-21T04:55:46.679Z,87.37
2019-01-21T04:58:20.873Z,87.45
2019-01-21T05:01:15.119Z,87.94
2019-01-21T05:04:09.403Z,88.24
2019-01-21T05:06:58.638Z,87.93
2019-01-21T05:09:51.288Z,88.05
2019-01-21T05:12:28.480Z,88.05
2019-01-21T05:15:16.572Z,88.12
2019-01-21T05:18:09.229Z,88.49
2019-01-21T05:20:56.936Z,87.94
2019-01-21T05:23:43.233Z,87.63
2019-01-21T05:26:20.243Z,88.19
2019-01-21T05:29:19.131Z,88.50
2019-01-21T05:32:02.821Z,88.39
2019-01-21T05:34:57.334Z,87.62
2019-01-21T05:37:28.876Z,87.68
2019-01-21T05:40:16.943Z,88.02
2019-01-21T05:43:00.111Z,88.05
2019-01-21T05:45:43.459Z,87.84
2019-01-21T05:48:31.643Z,87.57
2019-01-21T05:51:19.524Z,87.91
2019-01-21T05:53:53.614Z,88.32
2019-01-21T05:56:34.172Z,87.93
2019-01-21T05:59:26.901Z,87.70
2019-01-21T06:02:16.445Z,87.42
2019-01-21T06:05:04.241Z,87.76
2019-01-21T06:07:44.392Z,87.39
2019-01-21T06:10:18.521Z,87.68
2019-01-21T06:13:09.552Z,87.29
2019-01-21T06:15:41.066Z,87.83
2019-01-21T06:18:15.467Z,87.40
2019-01-21T06:20:49.978Z,87.67
2019-01-21T06:23:36.351Z,87.78
2019-01-21T06:26:13.809Z,87.50
2019-01-21T06:29:16.971Z,87.58
2019-01-21T06:31:54.407Z,87.44
2019-01-21T06:34:40.898Z,87.55
2019-01-21T06:37:18.608Z,87.40
2019-01-21T06:40:06.799Z,87.20
2019-01-21T06:42:53.207Z,87.41
2019-01-21T06:45:36.064Z,87.40
2019-01-21T06:48:13.859Z,87.40
2019-01-21T06:51:11.012Z,87.62
2019-01-21T06:54:03.425Z,87.43
2019-01-21T06:56:47.313Z,87.11
2019-01-21T06:59:30.631Z,87.57
2019-01-21T07:02:05.064Z,87.36
2019-01-21T07:05:13.162Z,87.73
2019-01-21T07:08:15.888Z,87.62
2019-01-21T07:10:53.580Z,87.61
2019-01-21T07:13:59.949Z,87.45
2019-01-21T07:16:46.456Z,87.33
2019-01-21T07:19:39.112Z,87.50
2019-01-21T07:22:10.627Z,87.58
2019-01-21T07:24:47.870Z,87.51
2019-01-21T07:27:25.299Z,87.25
2019-01-21T07:30:13.304Z,87.42
2019-01-21T07:32:47.456Z,87.15
2019-01-21T07:35:24.747Z,87.39
2019-01-21T07:38:04.594Z,87.25
2019-01-21T07:40:47.989Z,86.97
2019-01-21T07:43:22.159Z,86.96
2019-01-21T07:46:02.266Z,86.87
2019-01-21T07:49:08.901Z,86.63
2019-01-21T07:52:09.458Z,86.51
2019-01-21T07:54:55.889Z,86.88
2019-01-21T07:57:27.431Z,86.90
2019-01-21T08:00:10.763Z,86.39
2019-01-21T08:02:42.309Z,86.62
2019-01-21T08:05:42.540Z,86.95
2019-01-21T08:08:20.068Z,86.67
2019-01-21T08:10:51.595Z,86.89
2019-01-21T08:13:39.525Z,87.27
2019-01-21T08:16:33.711Z,87.35
2019-01-21T08:19:24.302Z,87.24
2019-01-21T08:22:05.519Z,87.41
2019-01-21T08:24:48.867Z,87.27
2019-01-21T08:27:35.199Z,87.27
2019-01-21T08:30:06.723Z,87.78
2019-01-21T08:32:38.261Z,87.18
2019-01-21T08:35:15.788Z,87.10
2019-01-21T08:38:03.789Z,86.88
2019-01-21T08:40:51.961Z,87.08
2019-01-21T08:43:41.303Z,87.07
2019-01-21T08:46:32.188Z,87.03
2019-01-21T08:49:15.641Z,87.23
2019-01-21T08:51:47.159Z,87.04
2019-01-21T08:54:30.806Z,86.81
2019-01-21T08:57:05.461Z,86.93
2019-01-21T08:59:46.223Z,86.84
2019-01-21T09:02:26.649Z,87.23
2019-01-21T09:05:06.723Z,87.24
2019-01-21T09:07:49.829Z,87.07
2019-01-21T09:10:23.828Z,87.01
2019-01-21T09:12:58.435Z,86.63
2019-01-21T09:15:32.927Z,86.57
2019-01-21T09:18:10.132Z,86.56
2019-01-21T09:20:44.507Z,86.69
2019-01-21T09:23:37.493Z,86.69
2019-01-21T09:26:44.147Z,86.79
2019-01-21T09:29:24.423Z,86.98
2019-01-21T09:32:14.411Z,86.61
2019-01-21T09:34:51.439Z,86.76
2019-01-21T09:37:31.924Z,86.61
2019-01-21T09:40:21.530Z,86.24
2019-01-21T09:43:09.672Z,86.41
2019-01-21T09:45:47.095Z,86.51
2019-01-21T09:48:14.420Z,86.37
2019-01-21T09:50:45.047Z,86.45
2019-01-21T09:53:13.889Z,86.43
2019-01-21T09:55:45.567Z,86.79
2019-01-21T09:58:14.047Z,86.54
2019-01-21T10:00:42.694Z,86.25
2019-01-21T10:03:12.921Z,86.32
2019-01-21T10:05:44.797Z,86.43
2019-01-21T10:08:19.097Z,86.83
2019-01-21T10:11:07.259Z,86.81
2019-01-21T10:13:44.860Z,86.55
2019-01-21T10:16:31.491Z,85.93
2019-01-21T10:19:14.787Z,86.00
2019-01-21T10:22:05.895Z,86.07
2019-01-21T10:24:37.410Z,85.74
2019-01-21T10:27:55.402Z,85.80
2019-01-21T10:30:41.936Z,85.91
2019-01-21T10:33:46.274Z,85.69
2019-01-21T10:36:26.517Z,85.72
2019-01-21T10:38:58.059Z,85.43
2019-01-21T10:41:41.724Z,85.03
2019-01-21T10:44:13.275Z,85.00
2019-01-21T10:46:50.405Z,85.19
2019-01-21T10:49:30.725Z,84.69
2019-01-21T10:52:31.060Z,84.44
2019-01-21T10:55:26.697Z,84.62
2019-01-21T10:58:04.131Z,84.50
2019-01-21T11:00:50.305Z,84.51
2019-01-21T11:03:28.058Z,84.78
2019-01-21T11:06:02.112Z,84.54
2019-01-21T11:08:42.687Z,84.62
2019-01-21T11:11:28.769Z,84.92
2019-01-21T11:14:05.880Z,84.67
2019-01-21T11:16:46.444Z,84.12
2019-01-21T11:19:34.591Z,84.10
2019-01-21T11:22:06.697Z,83.96
2019-01-21T11:25:00.410Z,84.14
2019-01-21T11:27:31.935Z,84.60
2019-01-21T11:30:21.846Z,84.18
2019-01-21T11:33:09.672Z,84.08
2019-01-21T11:36:09.994Z,83.85
2019-01-21T11:38:47.286Z,84.05
2019-01-21T11:41:30.208Z,84.27
2019-01-21T11:44:13.012Z,84.12
2019-01-21T11:47:02.306Z,83.93
2019-01-21T11:49:45.854Z,84.03
2019-01-21T11:52:23.662Z,84.19
2019-01-21T11:55:23.932Z,84.00
2019-01-21T11:58:07.430Z,83.88
2019-01-21T12:00:58.775Z,84.15
2019-01-21T12:03:33.115Z,84.09
2019-01-21T12:06:02.649Z,83.76
2019-01-21T12:08:46.132Z,83.17
2019-01-21T12:11:34.234Z,83.05
2019-01-21T12:14:05.759Z,83.00
2019-01-21T12:16:55.225Z,82.02
2019-01-21T12:19:41.831Z,81.98
2019-01-21T12:22:25.439Z,82.34
2019-01-21T12:24:56.952Z,82.18
2019-01-21T12:27:28.495Z,82.39
2019-01-21T12:30:08.846Z,82.16
2019-01-21T12:33:02.987Z,82.35
2019-01-21T12:35:46.186Z,82.33
2019-01-21T12:38:29.543Z,82.51
2019-01-21T12:41:12.941Z,82.29
2019-01-21T12:43:56.244Z,82.37
2019-01-21T12:46:42.953Z,82.62
2019-01-21T12:49:17.095Z,82.75
2019-01-21T12:51:51.150Z,82.46
2019-01-21T12:54:22.663Z,83.36
2019-01-21T12:57:09.345Z,83.02
2019-01-21T12:59:44.740Z,82.62
2019-01-21T13:02:16.103Z,82.16
2019-01-21T13:04:50.194Z,82.12
2019-01-21T13:07:45.621Z,82.15
2019-01-21T13:10:22.778Z,81.91
2019-01-21T13:12:54.336Z,82.20
2019-01-21T13:15:40.967Z,82.40
2019-01-21T13:18:21.057Z,82.23
2019-01-21T13:20:55.550Z,82.28
2019-01-21T13:23:27.102Z,82.67
2019-01-21T13:25:58.608Z,82.44
2019-01-21T13:28:38.909Z,82.56
2019-01-21T13:31:29.395Z,82.43
2019-01-21T13:34:17.446Z,82.32
2019-01-21T13:36:54.493Z,82.42
2019-01-21T13:39:49.391Z,82.37
2019-01-21T13:42:21.314Z,82.33
2019-01-21T13:45:18.318Z,82.31
2019-01-21T13:47:59.167Z,82.43
2019-01-21T13:50:37.255Z,82.66
2019-01-21T13:53:33.249Z,82.80
2019-01-21T13:56:25.407Z,82.85
2019-01-21T13:59:11.361Z,83.00
2019-01-21T14:01:42.884Z,82.89
2019-01-21T14:04:26.470Z,82.82
2019-01-21T14:07:22.392Z,82.69
2019-01-21T14:10:13.778Z,83.07
2019-01-21T14:12:48.196Z,82.91
2019-01-21T14:15:44.397Z,82.87
2019-01-21T14:18:25.030Z,83.09
2019-01-21T14:21:11.590Z,83.02
2019-01-21T14:23:58.276Z,83.12
2019-01-21T14:26:38.977Z,83.02
2019-01-21T14:29:13.197Z,83.08
2019-01-21T14:32:08.599Z,83.26
2019-01-21T14:34:40.153Z,83.13
2019-01-21T14:37:23.845Z,83.12
2019-01-21T14:39:58.219Z,83.15
2019-01-21T14:42:44.865Z,83.03
2019-01-21T14:45:22.456Z,83.26
2019-01-21T14:47:56.505Z,83.15
2019-01-21T14:50:58.804Z,83.08
2019-01-21T14:53:48.310Z,83.22
2019-01-21T14:56:28.441Z,83.02
2019-01-21T14:59:21.095Z,83.06
2019-01-21T15:02:08.917Z,83.16
2019-01-21T15:05:04.073Z,82.86
2019-01-21T15:07:35.621Z,83.29
2019-01-21T15:10:29.855Z,83.24
2019-01-21T15:13:07.171Z,83.01
2019-01-21T15:15:44.607Z,83.01
2019-01-21T15:18:19.337Z,83.07
2019-01-21T15:20:57.748Z,83.07
2019-01-21T15:23:56.600Z,83.04
2019-01-21T15:26:33.825Z,83.17
2019-01-21T15:29:22.784Z,83.51
2019-01-21T15:31:54.444Z,83.72
2019-01-21T15:34:42.989Z,83.93
2019-01-21T15:37:49.898Z,83.69
2019-01-21T15:40:39.449Z,84.11
2019-01-21T15:43:11.103Z,83.85
2019-01-21T15:45:49.897Z,83.73
2019-01-21T15:48:18.634Z,83.91
2019-01-21T15:50:56.147Z,84.17
2019-01-21T15:53:42.655Z,84.04
2019-01-21T15:56:20.126Z,83.83
2019-01-21T15:59:06.591Z,83.84
2019-01-21T16:01:47.041Z,84.01
2019-01-21T16:04:24.372Z,84.18
2019-01-21T16:07:11.036Z,84.14
2019-01-21T16:10:00.668Z,84.21
2019-01-21T16:12:52.386Z,84.19
2019-01-21T16:15:39.913Z,84.38
2019-01-21T16:18:17.027Z,84.58
2019-01-21T16:20:54.184Z,84.50
2019-01-21T16:23:52.534Z,84.83
2019-01-21T16:26:21.943Z,84.77
2019-01-21T16:28:59.128Z,84.93
2019-01-21T16:31:29.925Z,84.75
2019-01-21T16:34:07.588Z,84.95
2019-01-21T16:36:54.331Z,84.86
2019-01-21T16:39:34.782Z,84.83
2019-01-21T16:42:14.529Z,84.55
2019-01-21T16:44:45.786Z,84.95
2019-01-21T16:47:14.496Z,84.97
2019-01-21T16:49:42.993Z,84.92
2019-01-21T16:52:11.455Z,85.12
2019-01-21T16:54:39.937Z,84.74
2019-01-21T16:57:08.410Z,84.87
2019-01-21T16:59:36.946Z,84.78
2019-01-21T17:02:05.456Z,84.84
2019-01-21T17:04:34.085Z,85.18
2019-01-21T17:07:02.737Z,85.08
2019-01-21T17:09:31.228Z,85.25
2019-01-21T17:11:59.713Z,85.13
2019-01-21T17:14:28.268Z,85.10
2019-01-21T17:16:56.733Z,84.87
2019-01-21T17:19:25.229Z,84.87
2019-01-21T17:21:53.703Z,84.97
2019-01-21T17:24:22.199Z,85.27
2019-01-21T17:26:50.737Z,85.38
2019-01-21T17:29:20.749Z,85.14
2019-01-21T17:31:49.226Z,85.15
2019-01-21T17:34:17.681Z,85.10
2019-01-21T17:36:46.175Z,85.51
2019-01-21T17:39:14.644Z,85.41
2019-01-21T17:41:43.206Z,85.28
2019-01-21T17:44:11.669Z,85.40
2019-01-21T17:46:40.167Z,85.36
2019-01-21T17:49:08.632Z,85.66
2019-01-21T17:51:37.143Z,85.40
2019-01-21T17:54:05.792Z,85.54
2019-01-21T17:56:34.282Z,86.16
2019-01-21T17:59:02.783Z,85.97
2019-01-21T18:01:31.241Z,85.96
2019-01-21T18:03:59.782Z,85.97
2019-01-21T18:06:28.285Z,85.92
2019-01-21T18:08:56.758Z,86.29
2019-01-21T18:11:25.248Z,86.46
2019-01-21T18:13:53.720Z,86.88
2019-01-21T18:16:22.223Z,86.94
2019-01-21T18:18:50.686Z,86.97
2019-01-21T18:21:20.753Z,86.82
2019-01-21T18:23:49.228Z,87.63
2019-01-21T18:26:17.721Z,87.15
2019-01-21T18:28:46.192Z,87.57
2019-01-21T18:31:14.682Z,87.14
2019-01-21T18:33:43.163Z,87.77
2019-01-21T18:36:11.664Z,87.48
2019-01-21T18:38:40.195Z,87.94
2019-01-21T18:41:09.432Z,87.87
2019-01-21T18:43:37.968Z,87.79
2019-01-21T18:46:06.624Z,88.07
2019-01-21T18:48:35.263Z,87.88
2019-01-21T18:51:10.787Z,88.18
2019-01-21T18:53:39.840Z,88.46
2019-01-21T18:56:09.395Z,88.40
2019-01-21T18:58:40.293Z,88.34
2019-01-21T19:01:09.623Z,88.13
2019-01-21T19:03:40.403Z,87.91
2019-01-21T19:06:09.837Z,88.29
2019-01-21T19:08:38.901Z,88.01
2019-01-21T19:11:07.934Z,88.35
2019-01-21T19:13:36.518Z,87.73
2019-01-21T19:16:05.288Z,87.91
2019-01-21T19:18:33.754Z,88.33
2019-01-21T19:21:02.252Z,87.94
2019-01-21T19:23:30.715Z,87.90
2019-01-21T19:26:01.500Z,88.56
2019-01-21T19:28:29.958Z,88.46
2019-01-21T19:30:58.464Z,88.27
2019-01-21T19:33:26.933Z,88.26
2019-01-21T19:35:55.392Z,88.16
2019-01-21T19:38:24.082Z,89.06
2019-01-21T19:40:52.371Z,88.66
2019-01-21T19:43:20.925Z,88.48
2019-01-21T19:45:49.409Z,89.11
2019-01-21T19:48:18.100Z,88.96
2019-01-21T19:50:46.580Z,88.78
2019-01-21T19:53:15.085Z,88.55
2019-01-21T19:55:45.196Z,88.78
2019-01-21T19:58:13.836Z,88.34
2019-01-21T20:00:42.575Z,88.58
2019-01-21T20:03:11.068Z,88.57
2019-01-21T20:05:39.542Z,88.22
2019-01-21T20:08:08.041Z,88.39
2019-01-21T20:10:36.579Z,88.44
2019-01-21T20:13:05.248Z,88.33
2019-01-21T20:15:33.728Z,88.27
2019-01-21T20:18:02.240Z,88.17
2019-01-21T20:20:36.265Z,88.18
2019-01-21T20:23:05.587Z,87.96
2019-01-21T20:25:34.046Z,88.04
2019-01-21T20:28:02.539Z,88.00
2019-01-21T20:30:31.011Z,88.28
2019-01-21T20:32:59.512Z,88.05
2019-01-21T20:35:27.972Z,88.36
2019-01-21T20:37:56.478Z,88.24
2019-01-21T20:40:27.557Z,88.23
2019-01-21T20:42:56.115Z,88.10
2019-01-21T20:45:26.200Z,88.11
2019-01-21T20:47:54.691Z,88.07
2019-01-21T20:50:31.443Z,87.93
2019-01-21T20:52:59.935Z,88.16
2019-01-21T20:55:28.550Z,88.14
2019-01-21T20:57:57.039Z,87.78
2019-01-21T21:00:30.641Z,87.87
2019-01-21T21:02:59.387Z,88.17
2019-01-21T21:05:27.963Z,88.05
2019-01-21T21:07:56.516Z,88.11
2019-01-21T21:10:25.150Z,87.75
2019-01-21T21:12:53.634Z,88.10
2019-01-21T21:15:24.982Z,87.94
2019-01-21T21:17:53.494Z,87.85
2019-01-21T21:20:21.963Z,87.68
2019-01-21T21:22:50.467Z,87.71
2019-01-21T21:25:19.862Z,87.48
2019-01-21T21:27:48.622Z,87.65
2019-01-21T21:30:20.134Z,87.39
2019-01-21T21:32:48.623Z,87.33
2019-01-21T21:35:17.107Z,87.41
2019-01-21T21:37:45.609Z,87.36
2019-01-21T21:40:16.760Z,87.34
2019-01-21T21:42:45.431Z,87.56
2019-01-21T21:45:16.036Z,87.38
2019-01-21T21:47:44.561Z,87.40
2019-01-21T21:50:25.086Z,87.29
2019-01-21T21:52:53.583Z,87.54
2019-01-21T21:55:22.045Z,87.43
2019-01-21T21:57:50.550Z,87.18
2019-01-21T22:00:23.350Z,87.26
2019-01-21T22:02:51.916Z,87.39
2019-01-21T22:05:20.953Z,87.33
2019-01-21T22:07:49.440Z,87.66
2019-01-21T22:10:23.505Z,87.71
2019-01-21T22:12:52.275Z,87.79
2019-01-21T22:15:22.590Z,87.60
2019-01-21T22:17:51.252Z,87.51
2019-01-21T22:20:24.442Z,87.34
2019-01-21T22:22:53.297Z,87.49
2019-01-21T22:25:21.767Z,87.37
2019-01-21T22:27:50.233Z,87.29
2019-01-21T22:30:21.160Z,87.51
2019-01-21T22:32:49.641Z,87.59
2019-01-21T22:35:18.136Z,87.62
2019-01-21T22:37:46.988Z,87.56
2019-01-21T22:40:22.149Z,87.40
2019-01-21T22:42:50.983Z,87.90
2019-01-21T22:45:20.481Z,87.77
2019-01-21T22:47:49.231Z,87.75
2019-01-21T22:50:19.705Z,87.66
2019-01-21T22:52:48.199Z,87.94
2019-01-21T22:55:17.424Z,88.11
2019-01-21T22:57:45.960Z,88.05
2019-01-21T23:00:20.372Z,87.85
2019-01-21T23:02:48.859Z,87.72
2019-01-21T23:05:17.725Z,88.09
2019-01-21T23:07:46.208Z,87.88
2019-01-21T23:10:14.775Z,88.05
2019-01-21T23:12:43.245Z,87.92
2019-01-21T23:15:12.300Z,88.09
2019-01-21T23:17:42.350Z,87.58
2019-01-21T23:20:11.588Z,87.84
2019-01-21T23:22:40.070Z,88.05
2019-01-21T23:25:09.095Z,88.21
2019-01-21T23:27:37.847Z,87.74
2019-01-21T23:30:12.471Z,87.67
2019-01-21T23:32:40.928Z,87.65
2019-01-21T23:35:09.431Z,87.35
2019-01-21T23:37:37.917Z,87.86
2019-01-21T23:40:09.817Z,87.57
2019-01-21T23:42:38.293Z,87.96
2019-01-21T23:45:11.793Z,87.75
2019-01-21T23:47:40.277Z,88.09
2019-01-21T23:50:11.610Z,87.83
2019-01-21T23:52:40.460Z,87.93
2019-01-21T23:55:10.918Z,87.74
2019-01-21T23:57:39.383Z,87.89
